Time;durP1;ratioP1;P1;durP2;ratioP2;P2;SDS_P1;SDS_P2;PMS_P1;PMS_P2;Temp;Humidity;BMP_temperature;BMP_pressure;BME280_temperature;BME280_humidity;BME280_pressure;Samples;Min_cycle;Max_cycle;Signal;HPM_P1;HPM_P2
2020/12/26 00:01:51;;;;;;;20.13;7.50;;;;;;;1.73;96.23;97155.97;4946937;28;20627;-42
2020/12/26 00:04:21;;;;;;;19.98;8.60;;;;;;;1.62;95.66;97152.75;4944442;28;20230;-44
2020/12/26 00:06:51;;;;;;;18.73;6.50;;;;;;;1.69;95.57;97150.94;4947254;28;20270;-39
2020/12/26 00:09:18;;;;;;;19.27;7.93;;;;;;;1.64;95.90;97158.69;4944338;28;20239;-43
2020/12/26 00:11:45;;;;;;;17.83;7.80;;;;;;;1.57;96.57;97151.16;4941114;28;20200;-42
2020/12/26 00:14:12;;;;;;;20.75;7.10;;;;;;;1.58;96.86;97148.56;4943196;28;20227;-39
2020/12/26 00:20:08;;;;;;;14.52;6.70;;;;;;;1.63;96.63;97141.63;4975771;28;20245;-85
2020/12/26 00:22:35;;;;;;;15.50;7.78;;;;;;;1.56;95.69;97122.09;4978488;28;20246;-86
2020/12/26 00:25:03;;;;;;;26.75;8.70;;;;;;;1.72;95.54;97150.88;4979532;28;20227;-85
2020/12/26 00:27:30;;;;;;;30.35;7.93;;;;;;;1.59;95.58;97137.44;4980735;28;20250;-87
2020/12/26 00:29:57;;;;;;;21.45;9.23;;;;;;;1.54;95.76;97136.66;4981751;28;20743;-87
2020/12/26 00:32:24;;;;;;;17.77;8.65;;;;;;;1.65;95.79;97150.16;4979155;28;20194;-87
2020/12/26 00:34:51;;;;;;;25.20;8.80;;;;;;;1.65;95.54;97139.91;4976153;28;20618;-85
2020/12/26 00:37:19;;;;;;;17.73;8.20;;;;;;;1.71;95.76;97156.88;4978045;28;20601;-85
2020/12/26 00:39:46;;;;;;;24.83;8.32;;;;;;;1.54;95.76;97134.09;4975278;28;20609;-89
2020/12/26 00:42:13;;;;;;;14.10;7.55;;;;;;;1.68;95.54;97165.47;4978704;28;20218;-86
2020/12/26 00:44:39;;;;;;;21.40;8.90;;;;;;;1.69;95.67;97169.72;4977743;28;20598;-89
2020/12/26 00:47:06;;;;;;;19.10;8.38;;;;;;;1.54;96.01;97156.34;4975316;28;20261;-88
2020/12/26 00:49:39;;;;;;;20.17;8.68;;;;;;;1.68;96.24;97177.44;4977341;28;20642;-86
2020/12/26 00:52:06;;;;;;;16.55;7.88;;;;;;;1.26;96.51;97114.94;4976490;28;20231;-87
2020/12/26 00:54:34;;;;;;;22.75;8.65;;;;;;;1.54;96.33;97151.22;4976910;28;20275;-87
2020/12/26 00:57:01;;;;;;;18.65;8.50;;;;;;;1.29;95.79;97096.97;4982869;28;20602;-87
2020/12/26 00:59:28;;;;;;;17.92;9.05;;;;;;;1.50;95.74;97136.75;4981591;28;20650;-86
2020/12/26 01:01:55;;;;;;;23.67;9.70;;;;;;;1.51;95.47;97147.00;4977736;28;20194;-85
2020/12/26 01:04:22;;;;;;;22.58;10.35;;;;;;;1.44;96.07;97145.41;4974489;28;20257;-86
2020/12/26 01:06:53;;;;;;;19.88;9.50;;;;;;;1.56;95.66;97173.38;4974945;28;20226;-86
2020/12/26 01:09:20;;;;;;;27.38;7.95;;;;;;;1.41;96.07;97176.22;4975331;28;20704;-86
2020/12/26 01:11:48;;;;;;;18.38;7.88;;;;;;;1.33;95.97;97161.84;4980258;28;20199;-86
2020/12/26 01:14:18;;;;;;;20.60;9.80;;;;;;;1.18;95.90;97147.56;4977036;28;20673;-84
2020/12/26 01:16:49;;;;;;;21.60;8.85;;;;;;;1.44;96.43;97186.44;4971650;28;20198;-87
2020/12/26 01:19:45;;;;;;;18.10;8.65;;;;;;;1.48;95.86;97177.81;4977152;28;20222;-86
2020/12/26 01:22:14;;;;;;;17.27;8.60;;;;;;;1.36;95.94;97175.47;4983010;28;20221;-86
2020/12/26 01:24:43;;;;;;;20.45;8.70;;;;;;;1.42;95.52;97193.28;4980679;28;20230;-82
2020/12/26 01:27:10;;;;;;;18.65;8.30;;;;;;;1.34;95.44;97200.25;4979817;28;20226;-85
2020/12/26 01:29:37;;;;;;;23.02;8.70;;;;;;;1.30;95.15;97198.63;4985100;28;20736;-86
2020/12/26 01:32:04;;;;;;;17.02;7.15;;;;;;;1.20;94.64;97202.19;4974942;28;20253;-86
2020/12/26 01:34:31;;;;;;;23.42;8.25;;;;;;;1.05;94.98;97204.19;4977510;28;20498;-86
2020/12/26 01:36:58;;;;;;;22.67;8.35;;;;;;;1.22;95.47;97225.25;4977335;28;20198;-85
2020/12/26 01:39:25;;;;;;;20.90;8.45;;;;;;;1.10;95.67;97203.22;4981625;28;20257;-85
2020/12/26 01:41:54;;;;;;;20.40;9.60;;;;;;;1.22;95.61;97226.13;4975262;28;20642;-86
2020/12/26 01:44:23;;;;;;;29.10;9.48;;;;;;;1.08;96.08;97202.41;4977026;28;20705;-86
2020/12/26 01:46:51;;;;;;;26.30;8.18;;;;;;;1.30;95.65;97237.09;4978418;28;20226;-88
2020/12/26 01:49:20;;;;;;;27.92;9.95;;;;;;;1.41;96.13;97232.63;4979375;28;20677;-86
2020/12/26 01:51:48;;;;;;;31.45;8.75;;;;;;;1.24;96.16;97203.00;4978245;28;20622;-86
2020/12/26 01:54:16;;;;;;;18.38;7.88;;;;;;;1.33;95.74;97218.25;4975316;28;20253;-87
2020/12/26 01:56:44;;;;;;;13.75;7.88;;;;;;;1.44;96.24;97236.84;4980580;28;20649;-88
2020/12/26 01:59:12;;;;;;;20.75;8.55;;;;;;;1.30;96.05;97208.91;4976112;28;20692;-87
2020/12/26 02:01:42;;;;;;;17.65;8.00;;;;;;;1.31;95.48;97219.97;4983380;28;20199;-85
2020/12/26 02:04:14;;;;;;;20.70;8.05;;;;;;;1.31;96.16;97236.22;4980771;28;20608;-85
2020/12/26 02:06:44;;;;;;;20.25;8.00;;;;;;;1.45;95.88;97254.78;4982943;28;20653;-86
2020/12/26 02:09:12;;;;;;;24.77;8.70;;;;;;;1.29;96.51;97240.53;4978675;28;20757;-86
2020/12/26 02:11:39;;;;;;;20.73;8.93;;;;;;;1.31;96.39;97230.22;4979667;28;20590;-86
2020/12/26 02:14:06;;;;;;;18.55;8.45;;;;;;;1.26;96.55;97226.91;4978348;28;20681;-86
2020/12/26 02:16:47;;;;;;;21.60;9.60;;;;;;;1.49;95.96;97246.16;4979701;28;20199;-87
2020/12/26 02:19:17;;;;;;;20.42;9.32;;;;;;;1.49;95.95;97245.34;4975837;28;20618;-86
2020/12/26 02:21:45;;;;;;;19.27;7.45;;;;;;;1.46;96.44;97243.66;4983894;28;20234;-86
2020/12/26 02:24:20;;;;;;;19.98;8.80;;;;;;;1.48;96.20;97229.09;4985164;28;20226;-86
2020/12/26 02:26:48;;;;;;;20.77;7.10;;;;;;;1.23;95.33;97191.91;4979935;28;20650;-86
2020/12/26 02:29:15;;;;;;;17.77;8.63;;;;;;;1.45;95.21;97221.47;4979140;28;20218;-86
2020/12/26 02:31:41;;;;;;;15.48;7.63;;;;;;;1.57;95.51;97238.34;4976076;28;20736;-87
2020/12/26 02:34:08;;;;;;;16.58;8.43;;;;;;;1.50;95.43;97236.75;4980058;28;20218;-86
2020/12/26 02:36:37;;;;;;;22.23;8.30;;;;;;;1.23;94.96;97217.56;4982704;28;20205;-87
2020/12/26 02:39:05;;;;;;;18.58;7.78;;;;;;;1.20;95.13;97232.97;4981944;28;20218;-88
2020/12/26 02:41:33;;;;;;;13.55;8.05;;;;;;;0.21;94.95;97079.97;4983683;28;20230;-88
2020/12/26 02:44:00;;;;;;;17.83;8.43;;;;;;;1.19;95.16;97256.06;4983655;28;20222;-88
2020/12/26 02:46:32;;;;;;;19.65;8.10;;;;;;;1.16;95.50;97261.22;4980317;28;20206;-88
2020/12/26 02:48:59;;;;;;;20.30;7.22;;;;;;;0.82;95.56;97230.13;4979880;28;20276;-89
2020/12/26 02:51:26;;;;;;;24.52;8.60;;;;;;;0.80;96.48;97218.19;4981039;28;20735;-88
2020/12/26 02:53:53;;;;;;;21.08;9.25;;;;;;;0.83;96.87;97236.94;4975367;28;20320;-87
2020/12/26 02:56:19;;;;;;;19.55;8.90;;;;;;;0.69;96.66;97190.22;4987377;28;20619;-88
2020/12/26 02:58:47;;;;;;;20.15;8.40;;;;;;;0.70;96.41;97173.97;4982748;28;20195;-89
2020/12/26 03:01:14;;;;;;;22.52;9.10;;;;;;;0.88;96.29;97211.28;4978992;28;20241;-88
2020/12/26 03:03:41;;;;;;;23.63;9.25;;;;;;;0.87;96.30;97212.13;4982623;28;20213;-88
2020/12/26 03:06:10;;;;;;;19.08;8.35;;;;;;;1.03;96.29;97240.06;4981660;28;20496;-89
2020/12/26 03:08:37;;;;;;;19.35;8.18;;;;;;;1.08;96.53;97260.50;4977332;28;20197;-87
2020/12/26 03:11:04;;;;;;;19.15;6.90;;;;;;;1.08;95.85;97248.53;4983250;28;20645;-87
2020/12/26 03:13:31;;;;;;;14.07;7.82;;;;;;;0.97;96.39;97252.13;4982688;28;20273;-88
2020/12/26 03:15:59;;;;;;;27.08;9.00;;;;;;;0.96;96.04;97268.38;4981191;28;20206;-88
2020/12/26 03:18:27;;;;;;;24.98;7.72;;;;;;;0.95;95.54;97254.72;4983646;28;20689;-88
2020/12/26 03:21:01;;;;;;;13.60;6.93;;;;;;;0.84;94.86;97243.78;4977800;28;20210;-88
2020/12/26 03:23:28;;;;;;;16.63;7.18;;;;;;;0.83;94.55;97260.00;4976559;28;20641;-87
2020/12/26 03:25:55;;;;;;;19.65;7.45;;;;;;;0.88;94.19;97255.66;4980554;28;20223;-87
2020/12/26 03:28:22;;;;;;;19.45;7.28;;;;;;;0.73;94.15;97232.81;4991358;28;20206;-86
2020/12/26 03:30:49;;;;;;;18.55;8.63;;;;;;;0.74;94.24;97262.69;4982447;28;20230;-86
2020/12/26 03:33:17;;;;;;;18.95;7.30;;;;;;;0.79;94.51;97266.03;4977640;28;20179;-88
2020/12/26 03:35:44;;;;;;;22.15;8.35;;;;;;;0.71;94.63;97246.50;4974425;28;20633;-87
2020/12/26 03:38:11;;;;;;;16.20;8.27;;;;;;;0.76;94.64;97250.69;4979922;28;20202;-86
2020/12/26 03:40:38;;;;;;;21.27;8.20;;;;;;;0.69;95.08;97249.13;4972456;28;20298;-86
2020/12/26 03:43:05;;;;;;;18.00;8.20;;;;;;;0.46;95.10;97224.66;4980868;28;20226;-86
2020/12/26 03:45:32;;;;;;;20.15;7.45;;;;;;;0.77;95.29;97272.03;4979276;28;20226;-87
2020/12/26 03:47:58;;;;;;;22.48;8.30;;;;;;;0.29;95.35;97212.06;4984938;28;20191;-85
2020/12/26 03:50:26;;;;;;;20.27;7.97;;;;;;;0.58;95.85;97252.66;4980965;28;20206;-87
2020/12/26 03:52:58;;;;;;;18.05;7.95;;;;;;;0.49;96.14;97238.28;4979844;28;20242;-88
2020/12/26 03:55:25;;;;;;;16.85;7.95;;;;;;;0.40;96.52;97243.53;4989753;28;20243;-87
2020/12/26 03:57:52;;;;;;;28.45;8.73;;;;;;;0.52;96.61;97245.91;4990822;28;20191;-85
2020/12/26 04:00:19;;;;;;;16.75;7.65;;;;;;;0.64;96.35;97265.38;4979086;28;20619;-87
2020/12/26 04:02:46;;;;;;;21.38;8.00;;;;;;;0.64;96.09;97260.25;4979527;28;20652;-86
2020/12/26 04:05:13;;;;;;;23.38;8.50;;;;;;;0.61;96.30;97261.13;4973038;28;20230;-87
2020/12/26 04:07:40;;;;;;;22.77;8.15;;;;;;;0.77;96.36;97284.84;4978472;28;20257;-87
2020/12/26 04:10:07;;;;;;;18.70;8.10;;;;;;;0.73;96.53;97265.25;4979081;28;20231;-86
2020/12/26 04:12:34;;;;;;;22.35;8.15;;;;;;;0.71;96.31;97264.44;4980127;28;20233;-86
2020/12/26 04:15:02;;;;;;;19.33;7.80;;;;;;;0.81;96.68;97274.53;4978416;28;20677;-87
2020/12/26 04:17:33;;;;;;;22.50;8.80;;;;;;;0.70;96.68;97247.38;4982336;28;20649;-87
2020/12/26 04:19:59;;;;;;;19.70;7.95;;;;;;;0.90;96.37;97253.91;4980879;28;20226;-88
2020/12/26 04:22:26;;;;;;;23.65;9.35;;;;;;;1.03;96.76;97275.94;4987704;28;20233;-87
2020/12/26 04:24:58;;;;;;;20.90;8.07;;;;;;;0.89;96.49;97257.34;4982104;28;20729;-86
2020/12/26 04:27:25;;;;;;;17.85;8.25;;;;;;;1.02;96.77;97283.66;4976681;28;20191;-86
2020/12/26 04:29:52;;;;;;;26.10;10.35;;;;;;;1.06;96.42;97286.16;4975723;28;20439;-86
2020/12/26 04:32:19;;;;;;;22.25;9.32;;;;;;;1.07;96.82;97267.34;4979787;28;20551;-86
2020/12/26 04:34:46;;;;;;;22.83;8.75;;;;;;;1.10;96.68;97272.41;4988749;28;20229;-88
2020/12/26 04:37:13;;;;;;;18.30;8.40;;;;;;;1.13;96.67;97267.28;4982353;28;20535;-87
2020/12/26 04:39:41;;;;;;;17.48;8.05;;;;;;;1.13;96.34;97272.41;4979020;28;20226;-87
2020/12/26 04:42:09;;;;;;;21.45;8.75;;;;;;;0.98;96.47;97236.72;4979591;28;20175;-86
2020/12/26 04:44:36;;;;;;;19.00;8.40;;;;;;;0.67;96.24;97184.25;4981994;28;20345;-85
2020/12/26 04:47:09;;;;;;;22.25;10.20;;;;;;;1.32;95.76;97286.63;4980017;28;20183;-87
2020/12/26 04:49:39;;;;;;;19.33;8.75;;;;;;;1.16;95.79;97286.84;4974193;28;20231;-86
2020/12/26 04:52:10;;;;;;;21.13;8.95;;;;;;;0.78;95.59;97256.66;4969760;28;20207;-88
2020/12/26 04:54:42;;;;;;;28.42;9.32;;;;;;;0.73;96.12;97239.66;4982175;28;20233;-87
2020/12/26 04:57:11;;;;;;;23.95;9.60;;;;;;;1.08;96.48;97294.66;4986900;28;20214;-86
2020/12/26 04:59:46;;;;;;;18.70;8.50;;;;;;;1.19;96.35;97297.91;4982202;28;20540;-87
2020/12/26 05:02:17;;;;;;;17.23;9.10;;;;;;;1.32;96.28;97302.00;4980978;28;20210;-87
2020/12/26 05:04:44;;;;;;;27.27;10.05;;;;;;;1.24;95.88;97292.72;4976651;28;20664;-86
2020/12/26 05:07:11;;;;;;;29.95;14.05;;;;;;;1.21;96.02;97251.75;4975935;28;20844;-87
2020/12/26 05:09:38;;;;;;;23.40;10.00;;;;;;;1.41;95.55;97299.28;4976153;28;20261;-85
2020/12/26 05:12:05;;;;;;;26.00;10.88;;;;;;;1.15;94.90;97280.03;4973786;28;20748;-85
2020/12/26 05:14:33;;;;;;;21.20;9.57;;;;;;;1.20;94.58;97303.91;4984661;28;20230;-86
2020/12/26 05:17:01;;;;;;;31.65;9.02;;;;;;;1.03;95.13;97293.88;4977788;28;20194;-87
2020/12/26 05:19:28;;;;;;;16.27;8.90;;;;;;;1.04;95.09;97302.44;4975845;28;20230;-87
2020/12/26 05:21:56;;;;;;;22.17;9.40;;;;;;;0.74;95.34;97244.75;4981309;28;20245;-89
2020/12/26 05:24:24;;;;;;;21.15;9.93;;;;;;;1.03;95.38;97296.44;4977142;28;20889;-87
2020/12/26 05:26:52;;;;;;;26.50;10.48;;;;;;;1.09;95.34;97309.19;4974920;28;20276;-89
2020/12/26 05:29:22;;;;;;;19.98;9.13;;;;;;;1.07;95.58;97303.22;4978995;28;20640;-88
2020/12/26 05:31:56;;;;;;;30.70;9.32;;;;;;;0.99;96.33;97292.25;4978368;28;20230;-87
2020/12/26 05:34:42;;;;;;;28.70;10.77;;;;;;;0.87;95.71;97269.34;4985173;28;20222;-87
2020/12/26 05:37:09;;;;;;;24.27;9.18;;;;;;;0.03;95.87;97113.47;4978544;28;20225;-88
2020/12/26 05:39:38;;;;;;;22.40;9.80;;;;;;;0.90;96.06;97281.28;4979671;28;20254;-88
2020/12/26 05:42:06;;;;;;;21.40;10.02;;;;;;;0.76;96.39;97278.03;4981267;28;20175;-88
2020/12/26 05:44:34;;;;;;;20.08;8.98;;;;;;;0.75;96.92;97261.81;4982302;28;20222;-89
2020/12/26 05:47:04;;;;;;;40.65;11.20;;;;;;;0.85;97.25;97276.22;4983978;28;20301;-89
2020/12/26 05:49:33;;;;;;;21.98;8.68;;;;;;;0.81;97.25;97274.53;4981264;28;20575;-85
2020/12/26 05:52:06;;;;;;;19.90;9.85;;;;;;;0.78;97.35;97274.59;4983745;28;20339;-88
2020/12/26 05:54:33;;;;;;;32.45;9.55;;;;;;;0.65;97.26;97246.59;4977289;28;20238;-86
2020/12/26 05:57:08;;;;;;;21.65;9.20;;;;;;;0.65;97.47;97255.13;4981291;28;20646;-87
2020/12/26 05:59:35;;;;;;;20.92;9.88;;;;;;;0.62;97.78;97262.88;4982628;28;20257;-85
2020/12/26 06:02:23;;;;;;;25.05;8.90;;;;;;;0.70;98.45;97280.69;4983106;28;20241;-87
2020/12/26 06:04:55;;;;;;;20.88;7.85;;;;;;;0.60;98.00;97261.19;4973903;28;20724;-86
2020/12/26 06:07:24;;;;;;;20.02;9.32;;;;;;;0.65;97.72;97280.75;4983143;28;20619;-86
2020/12/26 06:09:54;;;;;;;24.50;8.52;;;;;;;0.71;97.63;97297.72;4979462;28;20259;-87
2020/12/26 06:12:23;;;;;;;23.40;9.55;;;;;;;0.68;97.64;97290.94;4982511;28;20167;-88
2020/12/26 06:14:51;;;;;;;19.05;9.25;;;;;;;0.57;97.74;97290.22;4986837;28;20218;-89
2020/12/26 06:17:24;;;;;;;20.25;8.65;;;;;;;0.42;98.20;97280.19;4977148;28;20542;-88
2020/12/26 06:20:04;;;;;;;17.45;7.93;;;;;;;0.46;98.01;97281.00;4985539;28;20238;-88
2020/12/26 06:22:45;;;;;;;22.05;8.95;;;;;;;0.56;97.74;97292.81;4999862;28;20245;-90
2020/12/26 06:25:14;;;;;;;18.08;9.25;;;;;;;0.62;97.47;97298.72;4999253;28;20218;-87
2020/12/26 06:27:58;;;;;;;33.53;15.77;;;;;;;0.61;97.28;97302.13;4983917;28;20190;-87
2020/12/26 06:30:25;;;;;;;47.53;19.92;;;;;;;0.56;97.23;97308.16;4979494;28;20231;-88
2020/12/26 06:33:01;;;;;;;39.17;16.65;;;;;;;0.37;96.50;97281.94;4986731;28;20522;-88
2020/12/26 06:35:28;;;;;;;54.70;18.50;;;;;;;0.48;96.33;97310.84;4987097;28;20249;-87
2020/12/26 06:38:12;;;;;;;42.95;17.52;;;;;;;0.05;95.97;97242.22;4994632;28;20202;-87
2020/12/26 06:40:50;;;;;;;26.70;13.05;;;;;;;0.35;96.55;97300.72;4985792;28;20716;-88
2020/12/26 06:43:45;;;;;;;27.52;13.80;;;;;;;0.51;96.28;97310.78;4981094;28;20570;-87
2020/12/26 06:46:39;;;;;;;30.85;10.70;;;;;;;0.58;96.51;97309.84;4981376;28;20249;-87
2020/12/26 06:49:23;;;;;;;25.05;10.55;;;;;;;0.53;96.28;97303.91;4980851;28;20210;-88
2020/12/26 06:54:57;;;;;;;28.50;10.02;;;;;;;0.32;96.47;97280.28;4984903;28;20780;-88
2020/12/26 06:57:37;;;;;;;31.50;11.68;;;;;;;0.29;97.02;97288.84;4993825;28;20198;-90
2020/12/26 07:00:26;;;;;;;21.67;10.30;;;;;;;0.52;97.33;97312.47;4991441;28;20684;-87
2020/12/26 07:03:20;;;;;;;26.27;9.98;;;;;;;0.46;97.30;97307.41;4970297;28;20233;-90
2020/12/26 07:05:49;;;;;;;19.42;9.90;;;;;;;0.49;97.06;97315.09;4954349;28;20258;-88
2020/12/26 07:08:26;;;;;;;26.85;10.85;;;;;;;-0.03;96.83;97246.56;4985811;28;20186;-88
2020/12/26 07:10:54;;;;;;;18.42;8.57;;;;;;;0.23;97.22;97290.66;4981653;28;20271;-89
2020/12/26 07:13:47;;;;;;;24.65;9.75;;;;;;;0.46;97.21;97327.91;4981598;28;20593;-90
2020/12/26 07:16:45;;;;;;;31.17;12.10;;;;;;;0.54;97.71;97326.09;4986342;28;20634;-89
2020/12/26 07:19:38;;;;;;;38.65;11.05;;;;;;;0.58;97.89;97321.78;4978306;28;20546;-88
2020/12/26 07:22:12;;;;;;;23.23;9.32;;;;;;;0.62;97.47;97318.34;4984337;28;20194;-87
2020/12/26 07:24:40;;;;;;;15.40;8.65;;;;;;;0.58;96.89;97316.66;4982067;28;20218;-88
2020/12/26 07:27:22;;;;;;;21.45;7.47;;;;;;;0.48;97.25;97328.75;4972922;28;20540;-89
2020/12/26 07:30:09;;;;;;;24.80;8.27;;;;;;;0.08;97.66;97263.50;4992862;28;20222;-87
2020/12/26 07:32:52;;;;;;;26.42;9.35;;;;;;;0.51;97.91;97326.16;4976338;28;20692;-86
2020/12/26 07:35:39;;;;;;;19.85;8.20;;;;;;;0.51;97.35;97326.16;4976118;28;20702;-86
2020/12/26 07:38:09;;;;;;;22.27;8.30;;;;;;;0.41;97.80;97324.56;4980536;28;20625;-88
2020/12/26 07:40:38;;;;;;;13.85;7.18;;;;;;;0.41;97.66;97295.53;4984521;28;20238;-89
2020/12/26 07:43:08;;;;;;;22.85;8.77;;;;;;;0.70;97.27;97314.84;4985264;28;20505;-87
2020/12/26 07:45:38;;;;;;;17.63;8.15;;;;;;;0.68;96.72;97313.97;4979739;28;20257;-88
2020/12/26 07:48:06;;;;;;;11.93;6.50;;;;;;;0.74;96.87;97311.34;4981382;28;20589;-88
2020/12/26 07:50:35;;;;;;;20.17;7.38;;;;;;;0.74;96.82;97307.97;4986160;28;20230;-87
2020/12/26 07:53:04;;;;;;;17.52;7.22;;;;;;;0.79;97.00;97275.44;4984517;28;20207;-87
2020/12/26 07:55:32;;;;;;;11.80;5.53;;;;;;;1.12;94.98;97274.97;4990397;28;20222;-88
2020/12/26 07:58:08;;;;;;;11.93;6.80;;;;;;;1.26;93.99;97289.25;4994433;28;20195;-88
2020/12/26 08:00:36;;;;;;;15.70;6.93;;;;;;;1.12;93.01;97264.72;4984721;28;20476;-88
2020/12/26 08:03:05;;;;;;;16.50;6.50;;;;;;;1.05;93.62;97281.88;4982064;28;20252;-89
2020/12/26 08:05:34;;;;;;;17.38;10.07;;;;;;;1.17;93.27;97281.72;4981333;28;20214;-89
2020/12/26 08:08:12;;;;;;;22.95;11.88;;;;;;;1.18;92.24;97244.97;4984833;28;20194;-88
2020/12/26 08:10:40;;;;;;;22.70;10.52;;;;;;;1.36;92.05;97249.81;4978121;28;20250;-88
2020/12/26 08:13:13;;;;;;;28.30;8.90;;;;;;;1.89;91.52;97293.38;4983357;28;20191;-88
2020/12/26 08:15:40;;;;;;;14.55;7.63;;;;;;;2.12;91.01;97282.69;4980711;28;20605;-89
2020/12/26 08:18:08;;;;;;;12.25;6.78;;;;;;;1.75;89.19;97192.72;4982326;28;20243;-90
2020/12/26 08:20:36;;;;;;;15.85;6.15;;;;;;;2.59;86.64;97275.78;4981766;28;20685;-89
2020/12/26 08:23:03;;;;;;;13.75;7.00;;;;;;;2.88;86.07;97273.44;4982480;28;20557;-90
2020/12/26 08:25:31;;;;;;;18.35;7.65;;;;;;;3.36;85.21;97264.66;4979079;28;20694;-89
2020/12/26 08:28:03;;;;;;;15.30;5.03;;;;;;;3.50;82.14;97246.31;4981973;28;20198;-88
2020/12/26 08:30:35;;;;;;;9.82;5.95;;;;;;;3.72;80.96;97286.94;4973736;28;20254;-88
2020/12/26 08:33:22;;;;;;;16.85;6.63;;;;;;;3.32;80.61;97239.88;4979482;28;20667;-88
2020/12/26 08:35:56;;;;;;;11.60;6.60;;;;;;;3.19;82.06;97287.34;4979035;28;20736;-88
2020/12/26 08:38:31;;;;;;;9.75;5.70;;;;;;;3.00;81.97;97278.34;4979306;28;20241;-88
2020/12/26 08:41:02;;;;;;;8.23;4.88;;;;;;;3.17;82.53;97280.53;4983865;28;20306;-84
2020/12/26 08:43:30;;;;;;;15.55;4.88;;;;;;;2.50;82.04;97164.69;4982767;28;20191;-88
2020/12/26 08:45:57;;;;;;;9.90;5.80;;;;;;;3.11;83.16;97262.69;4980129;28;20237;-89
2020/12/26 08:48:26;;;;;;;17.95;8.20;;;;;;;2.88;82.41;97219.47;4984914;28;20637;-88
2020/12/26 08:50:57;;;;;;;11.00;5.10;;;;;;;3.15;81.43;97292.59;4981965;28;20224;-87
2020/12/26 08:53:28;;;;;;;19.13;5.85;;;;;;;2.82;82.22;97268.47;4981417;28;20203;-87
2020/12/26 08:55:57;;;;;;;15.10;4.80;;;;;;;3.06;82.63;97301.34;4981564;28;20536;-87
2020/12/26 08:58:25;;;;;;;33.95;11.07;;;;;;;3.40;81.53;97280.88;4978615;28;20195;-87
2020/12/26 09:00:56;;;;;;;21.92;9.15;;;;;;;3.71;81.23;97292.97;4979864;28;21044;-87
2020/12/26 09:03:24;;;;;;;47.13;16.98;;;;;;;3.61;80.17;97296.63;4978470;28;20202;-87
2020/12/26 09:05:52;;;;;;;8.80;5.35;;;;;;;3.72;80.67;97310.09;4977129;28;20286;-86
2020/12/26 09:08:26;;;;;;;15.18;7.93;;;;;;;3.58;80.21;97304.44;4975113;28;20226;-85
2020/12/26 09:10:58;;;;;;;7.45;4.80;;;;;;;3.41;79.67;97298.84;4981657;28;20260;-87
2020/12/26 09:13:30;;;;;;;188.95;58.03;;;;;;;3.15;81.29;97324.28;4983440;28;20291;-88
2020/12/26 09:16:01;;;;;;;25.52;9.40;;;;;;;3.24;82.01;97328.41;4978212;28;20230;-88
2020/12/26 09:18:29;;;;;;;12.88;6.70;;;;;;;2.80;82.05;97293.31;4979095;28;20230;-87
2020/12/26 09:20:58;;;;;;;10.38;5.60;;;;;;;2.91;82.73;97339.38;5034497;23;20291;-91
2020/12/26 09:23:32;;;;;;;7.80;4.75;;;;;;;2.50;84.14;97347.06;5014265;28;20242;-90
2020/12/26 09:26:09;;;;;;;10.95;4.80;;;;;;;1.33;84.95;97203.69;5013980;28;20243;-89
2020/12/26 09:28:44;;;;;;;7.88;4.30;;;;;;;1.92;86.96;97344.63;5005691;28;20196;-89
2020/12/26 09:31:15;;;;;;;8.00;4.85;;;;;;;1.82;88.46;97342.25;5015036;28;20247;-90
2020/12/26 09:42:30;;;;;;;9.02;4.60;;;;;;;1.73;90.12;97350.97;4898336;29;20227;-39
2020/12/26 09:44:57;;;;;;;11.57;5.10;;;;;;;1.94;89.70;97352.31;4897988;29;20721;-42
2020/12/26 09:47:26;;;;;;;7.80;4.80;;;;;;;2.00;88.71;97357.38;4905349;29;20666;-39
2020/12/26 09:50:01;;;;;;;17.98;6.10;;;;;;;1.72;89.42;97284.28;4903540;29;20834;-43
2020/12/26 09:52:42;;;;;;;12.70;5.80;;;;;;;2.32;88.27;97360.22;4907109;29;20744;-43
2020/12/26 09:58:26;;;;;;;14.73;5.40;;;;;;;2.42;87.82;97354.88;4884096;29;20217;-42
2020/12/26 10:00:53;;;;;;;8.00;4.63;;;;;;;2.56;88.40;97349.50;4886376;29;20272;-43
2020/12/26 10:03:21;;;;;;;15.35;4.70;;;;;;;2.82;87.25;97348.13;4884863;29;20898;-42
2020/12/26 10:08:16;;;;;;;9.55;5.47;;;;;;;3.28;86.65;97351.44;4939220;28;20239;-39
2020/12/26 10:14:12;;;;;;;9.73;4.57;;;;;;;3.30;83.19;97348.84;4944334;23;20289;-43
2020/12/26 10:16:43;;;;;;;8.95;4.97;;;;;;;3.31;83.43;97343.63;4974611;23;20281;-39
2020/12/26 10:19:16;;;;;;;9.38;5.55;;;;;;;3.21;82.81;97337.00;4946219;28;20711;-43
2020/12/26 10:25:18;;;;;;;11.27;4.85;;;;;;;3.18;83.16;97331.94;4920662;23;20271;-37
2020/12/26 10:27:56;;;;;;;8.73;4.95;;;;;;;3.18;84.21;97339.66;4914719;29;20248;-38
2020/12/26 10:30:25;;;;;;;9.43;5.15;;;;;;;3.08;84.01;97338.16;4917577;29;20761;-42
2020/12/26 10:32:52;;;;;;;8.18;4.85;;;;;;;2.84;84.42;97310.38;4925885;23;20211;-41
2020/12/26 10:35:21;;;;;;;14.98;4.78;;;;;;;3.24;83.74;97336.94;4972344;28;20607;-38
2020/12/26 10:37:48;;;;;;;9.48;4.10;;;;;;;3.09;84.50;97342.41;4964803;28;20251;-39
2020/12/26 10:40:15;;;;;;;9.50;4.32;;;;;;;3.30;84.52;97330.84;4967657;28;20228;-47
2020/12/26 10:42:43;;;;;;;8.55;4.45;;;;;;;3.59;83.23;97329.28;4965409;28;20294;-39
2020/12/26 10:45:13;;;;;;;9.32;4.93;;;;;;;3.75;83.04;97322.06;4967986;28;20323;-42
2020/12/26 10:47:41;;;;;;;10.68;5.32;;;;;;;3.99;82.54;97314.59;4979726;23;20630;-43
2020/12/26 10:50:08;;;;;;;15.00;5.22;;;;;;;3.89;81.46;97322.59;4930634;28;20274;-43
2020/12/26 10:52:36;;;;;;;8.07;4.55;;;;;;;3.97;81.18;97315.50;4938817;29;20265;-44
2020/12/26 10:55:06;;;;;;;6.93;3.55;;;;;;;4.00;81.49;97321.44;4929176;28;20206;-38
2020/12/26 10:57:32;;;;;;;10.55;5.57;;;;;;;4.01;80.35;97323.13;4934739;28;20492;-42
2020/12/26 11:03:23;;;;;;;9.88;5.13;;;;;;;3.78;82.33;97299.66;4873182;29;20576;-44
2020/12/26 11:05:51;;;;;;;9.38;4.72;;;;;;;4.02;81.20;97296.47;4874486;29;20261;-43
2020/12/26 11:08:21;;;;;;;6.85;4.55;;;;;;;4.14;81.04;97294.44;4872072;29;20201;-46
2020/12/26 11:10:50;;;;;;;30.63;10.73;;;;;;;4.43;80.28;97291.94;4862234;29;20650;-43
2020/12/26 11:13:17;;;;;;;16.38;6.47;;;;;;;4.68;79.92;97292.09;4871510;29;20284;-47
2020/12/26 11:15:45;;;;;;;8.88;5.18;;;;;;;4.83;77.85;97291.69;4874336;29;20684;-43
2020/12/26 11:18:12;;;;;;;10.88;5.32;;;;;;;4.98;78.02;97291.22;4878323;29;20687;-44
2020/12/26 11:20:39;;;;;;;9.73;5.47;;;;;;;4.80;77.78;97281.47;4876520;29;20933;-47
2020/12/26 11:23:06;;;;;;;10.23;5.45;;;;;;;4.77;77.35;97284.09;4877972;29;20573;-44
2020/12/26 11:25:33;;;;;;;10.68;4.80;;;;;;;4.69;77.58;97275.75;4870140;29;20308;-43
2020/12/26 11:28:02;;;;;;;12.82;5.38;;;;;;;4.72;78.68;97273.09;4875951;29;20889;-47
2020/12/26 11:30:28;;;;;;;12.43;4.57;;;;;;;4.62;77.62;97245.88;4875396;29;20231;-43
2020/12/26 11:32:55;;;;;;;10.90;4.35;;;;;;;4.52;76.53;97265.91;4878599;29;20272;-43
2020/12/26 11:35:22;;;;;;;8.45;4.45;;;;;;;4.44;76.71;97256.72;4871906;29;20319;-43
2020/12/26 11:37:49;;;;;;;5.80;3.60;;;;;;;4.73;76.79;97254.16;4878332;29;20584;-43
2020/12/26 11:40:16;;;;;;;9.00;3.25;;;;;;;5.34;74.79;97259.19;4878101;29;20681;-47
2020/12/26 11:42:43;;;;;;;8.13;4.65;;;;;;;6.20;73.69;97246.88;4883441;29;20260;-48
2020/12/26 11:45:13;;;;;;;6.85;4.65;;;;;;;7.10;70.09;97246.13;4876473;29;20641;-44
2020/12/26 11:47:41;;;;;;;9.55;4.20;;;;;;;8.06;66.59;97237.88;4878033;29;20216;-44
2020/12/26 11:50:08;;;;;;;7.93;3.97;;;;;;;8.64;64.53;97243.13;4877290;29;20274;-47
2020/12/26 11:52:35;;;;;;;5.72;3.65;;;;;;;8.81;63.15;97242.38;4879689;29;20246;-44
2020/12/26 11:55:02;;;;;;;13.63;4.90;;;;;;;8.49;63.95;97236.00;4880126;29;20197;-44
2020/12/26 11:57:29;;;;;;;8.88;3.92;;;;;;;8.57;63.16;97233.94;4874672;29;20986;-44
2020/12/26 11:59:57;;;;;;;6.83;3.50;;;;;;;8.82;61.63;97242.31;4876871;29;20280;-44
2020/12/26 12:02:25;;;;;;;6.60;3.63;;;;;;;8.56;63.28;97240.03;4849054;29;895551;-44
2020/12/26 12:04:51;;;;;;;7.67;4.50;;;;;;;8.79;64.88;97247.63;4878293;29;20252;-48
2020/12/26 12:07:19;;;;;;;7.53;4.27;;;;;;;8.58;64.95;97245.16;4878297;29;20932;-47
2020/12/26 12:09:46;;;;;;;6.17;3.83;;;;;;;8.50;65.41;97240.28;4862984;29;20533;-44
2020/12/26 12:12:12;;;;;;;8.70;4.03;;;;;;;8.07;63.03;97238.72;4867234;29;20897;-44
2020/12/26 12:14:39;;;;;;;5.93;3.27;;;;;;;7.64;64.80;97231.03;4883880;29;20454;-47
2020/12/26 12:17:07;;;;;;;6.53;3.30;;;;;;;6.88;66.40;97230.59;4871166;29;20901;-44
2020/12/26 12:19:34;;;;;;;7.53;3.70;;;;;;;6.58;68.45;97233.44;4875009;29;20462;-42